Time;durP1;ratioP1;P1;durP2;ratioP2;P2;SDS_P1;SDS_P2;PMS_P1;PMS_P2;Temp;Humidity;BMP_temperature;BMP_pressure;BME280_temperature;BME280_humidity;BME280_pressure;Samples;Min_cycle;Max_cycle;Signal;HPM_P1;HPM_P2
2023/08/17 00:01:23;;;;;;;4.38;3.97;;;;;;;;;;10372669;28;20049;-47
2023/08/17 00:06:25;;;;;;;4.80;4.25;;;;;;;;;;10370937;28;20083;-47
2023/08/17 00:11:26;;;;;;;6.03;4.15;;;;;;;;;;10372421;28;20087;-48
2023/08/17 00:16:26;;;;;;;6.63;4.18;;;;;;;;;;10371747;28;20445;-48
2023/08/17 00:21:27;;;;;;;5.43;4.20;;;;;;;;;;10371509;28;20370;-48
2023/08/17 00:26:28;;;;;;;5.22;4.18;;;;;;;;;;10371908;28;20465;-47
2023/08/17 00:31:29;;;;;;;4.63;3.92;;;;;;;;;;10371279;28;20053;-47
2023/08/17 00:36:29;;;;;;;4.28;3.85;;;;;;;;;;10370198;28;20125;-48
2023/08/17 00:41:30;;;;;;;6.03;3.63;;;;;;;;;;10370497;28;20026;-48
2023/08/17 00:46:31;;;;;;;4.95;4.35;;;;;;;;;;10370669;28;20029;-48
2023/08/17 00:51:32;;;;;;;4.20;3.80;;;;;;;;;;10370606;28;20033;-51
2023/08/17 00:56:32;;;;;;;4.93;3.95;;;;;;;;;;10370326;28;20073;-47
2023/08/17 01:01:33;;;;;;;4.38;3.92;;;;;;;;;;10368778;28;20025;-49
2023/08/17 01:06:34;;;;;;;6.32;4.13;;;;;;;;;;10369829;28;20026;-47
2023/08/17 01:11:56;;;;;;;6.22;3.85;;;;;;;;;;10369752;28;20484;-47
2023/08/17 01:17:03;;;;;;;7.40;4.50;;;;;;;;;;10368795;28;20029;-48
2023/08/17 01:22:08;;;;;;;4.32;3.65;;;;;;;;;;10369335;28;20485;-49
2023/08/17 01:27:08;;;;;;;3.72;3.42;;;;;;;;;;10369140;28;20209;-48
2023/08/17 01:32:33;;;;;;;5.35;3.92;;;;;;;;;;10369066;28;20064;-49
2023/08/17 01:37:36;;;;;;;4.45;3.90;;;;;;;;;;10367564;28;20042;-48
2023/08/17 01:42:38;;;;;;;4.75;3.65;;;;;;;;;;10368695;28;20433;-50
2023/08/17 01:47:38;;;;;;;4.50;3.85;;;;;;;;;;10366918;28;20033;-48
2023/08/17 01:52:39;;;;;;;4.68;4.05;;;;;;;;;;10368766;28;20026;-48
2023/08/17 01:57:40;;;;;;;5.25;4.00;;;;;;;;;;10368303;28;20033;-48
2023/08/17 02:02:41;;;;;;;4.03;3.50;;;;;;;;;;10368474;28;20026;-48
2023/08/17 02:07:41;;;;;;;3.83;3.53;;;;;;;;;;10367937;28;20104;-50
2023/08/17 02:12:42;;;;;;;5.00;3.85;;;;;;;;;;10367883;28;20026;-49
2023/08/17 02:17:42;;;;;;;5.15;3.67;;;;;;;;;;10367744;28;20026;-47
2023/08/17 02:22:43;;;;;;;4.00;3.28;;;;;;;;;;10367570;28;20025;-49
2023/08/17 02:27:44;;;;;;;4.00;3.47;;;;;;;;;;10367588;28;20026;-49
2023/08/17 02:32:44;;;;;;;3.33;3.03;;;;;;;;;;10367350;28;20050;-51
2023/08/17 02:37:45;;;;;;;3.50;3.20;;;;;;;;;;10367114;28;20594;-50
2023/08/17 02:42:45;;;;;;;3.58;3.28;;;;;;;;;;10367285;28;20501;-46
2023/08/17 02:47:46;;;;;;;3.95;3.58;;;;;;;;;;10366990;28;20038;-47
2023/08/17 02:52:46;;;;;;;3.83;3.40;;;;;;;;;;10367099;28;20504;-48
2023/08/17 02:57:47;;;;;;;5.78;3.58;;;;;;;;;;10367283;28;20034;-50
2023/08/17 03:02:48;;;;;;;5.03;3.67;;;;;;;;;;10372286;28;20038;-47
2023/08/17 03:07:48;;;;;;;3.38;3.08;;;;;;;;;;10374689;28;20040;-46
2023/08/17 03:12:49;;;;;;;3.33;3.05;;;;;;;;;;10374702;28;20558;-46
2023/08/17 03:17:49;;;;;;;3.67;3.10;;;;;;;;;;10374357;28;20036;-46
2023/08/17 03:22:50;;;;;;;5.70;3.45;;;;;;;;;;10374023;28;20029;-47
2023/08/17 03:27:50;;;;;;;6.25;3.20;;;;;;;;;;10373801;28;20073;-48
2023/08/17 03:32:51;;;;;;;4.78;3.30;;;;;;;;;;10373854;28;20026;-46
2023/08/17 03:37:52;;;;;;;4.47;3.08;;;;;;;;;;10373420;28;20092;-46
2023/08/17 03:42:52;;;;;;;3.72;3.30;;;;;;;;;;10373454;28;20034;-47
2023/08/17 03:47:53;;;;;;;4.35;3.10;;;;;;;;;;10372991;28;20056;-46
2023/08/17 03:52:53;;;;;;;3.25;2.95;;;;;;;;;;10372939;28;20061;-49
2023/08/17 03:57:54;;;;;;;3.75;3.45;;;;;;;;;;10373270;28;20105;-49
2023/08/17 04:02:54;;;;;;;4.05;3.65;;;;;;;;;;10372716;28;20032;-47
2023/08/17 04:07:55;;;;;;;7.40;3.17;;;;;;;;;;10372333;28;20026;-47
2023/08/17 04:12:56;;;;;;;4.38;3.25;;;;;;;;;;10372562;28;20029;-48
2023/08/17 04:17:57;;;;;;;7.95;3.17;;;;;;;;;;10372176;28;20034;-51
2023/08/17 04:22:58;;;;;;;3.40;3.10;;;;;;;;;;10371787;28;20029;-50
2023/08/17 04:27:58;;;;;;;3.30;3.00;;;;;;;;;;10371510;28;20118;-48
2023/08/17 04:32:59;;;;;;;3.55;3.08;;;;;;;;;;10371438;28;20029;-48
2023/08/17 04:37:59;;;;;;;5.53;3.00;;;;;;;;;;10371213;28;20121;-49
2023/08/17 04:43:00;;;;;;;4.82;2.85;;;;;;;;;;10370633;28;20527;-47
2023/08/17 04:48:02;;;;;;;8.55;2.90;;;;;;;;;;10371807;28;20036;-49
2023/08/17 04:53:03;;;;;;;4.63;2.85;;;;;;;;;;10370612;28;20097;-50
2023/08/17 04:58:03;;;;;;;3.22;2.88;;;;;;;;;;10370369;28;20109;-58
2023/08/17 05:03:04;;;;;;;5.03;3.78;;;;;;;;;;10370005;28;20034;-61
2023/08/17 05:08:05;;;;;;;4.80;4.30;;;;;;;;;;10370276;28;20026;-62
2023/08/17 05:13:05;;;;;;;5.00;4.50;;;;;;;;;;10369691;28;20022;-62
2023/08/17 05:18:07;;;;;;;4.40;4.00;;;;;;;;;;10369646;28;20084;-62
2023/08/17 05:23:08;;;;;;;4.38;3.90;;;;;;;;;;10368950;28;20037;-60
2023/08/17 05:28:08;;;;;;;5.40;4.15;;;;;;;;;;10369876;28;20552;-62
2023/08/17 05:33:09;;;;;;;5.43;4.35;;;;;;;;;;10369205;28;20474;-62
2023/08/17 05:38:10;;;;;;;4.05;3.67;;;;;;;;;;10369161;28;20057;-62
2023/08/17 05:43:10;;;;;;;4.32;3.92;;;;;;;;;;10368728;28;20119;-62
2023/08/17 05:48:11;;;;;;;4.30;3.80;;;;;;;;;;10369111;28;20029;-62
2023/08/17 05:53:12;;;;;;;4.20;3.80;;;;;;;;;;10369406;28;20362;-62
2023/08/17 05:58:12;;;;;;;4.22;3.80;;;;;;;;;;10368891;28;20473;-61
2023/08/17 06:03:13;;;;;;;4.47;3.83;;;;;;;;;;10368587;28;20477;-62
2023/08/17 06:08:13;;;;;;;6.32;3.80;;;;;;;;;;10366797;28;20033;-62
2023/08/17 06:13:14;;;;;;;5.28;3.80;;;;;;;;;;10367949;28;20030;-62
2023/08/17 06:18:15;;;;;;;3.58;3.28;;;;;;;;;;10367778;28;20036;-61
2023/08/17 06:23:15;;;;;;;4.13;3.75;;;;;;;;;;10367717;28;20029;-61
2023/08/17 06:28:16;;;;;;;4.10;3.70;;;;;;;;;;10368215;28;20033;-62
2023/08/17 06:33:16;;;;;;;3.90;3.25;;;;;;;;;;10367650;28;20038;-62
2023/08/17 06:38:17;;;;;;;4.13;3.58;;;;;;;;;;10373389;28;20053;-60
2023/08/17 06:43:18;;;;;;;3.60;3.30;;;;;;;;;;10375560;28;20037;-61
2023/08/17 06:48:19;;;;;;;5.85;3.40;;;;;;;;;;10375396;28;20032;-60
2023/08/17 06:53:19;;;;;;;4.28;3.88;;;;;;;;;;10374760;28;20037;-62
2023/08/17 06:58:20;;;;;;;5.15;3.83;;;;;;;;;;10374742;28;20079;-63
2023/08/17 07:03:20;;;;;;;4.28;3.83;;;;;;;;;;10374052;28;20026;-61
2023/08/17 07:08:21;;;;;;;4.40;3.80;;;;;;;;;;10374188;28;20022;-62
2023/08/17 07:13:21;;;;;;;3.80;3.40;;;;;;;;;;10373181;28;20105;-61
2023/08/17 07:18:22;;;;;;;4.75;4.03;;;;;;;;;;10374821;28;20246;-62
2023/08/17 07:23:23;;;;;;;3.60;3.30;;;;;;;;;;10374142;28;20493;-63
2023/08/17 07:28:23;;;;;;;4.00;3.60;;;;;;;;;;10374479;28;20026;-64
2023/08/17 07:33:24;;;;;;;6.75;3.38;;;;;;;;;;10373795;28;20060;-64
2023/08/17 07:38:24;;;;;;;3.85;3.45;;;;;;;;;;10373504;28;20038;-61
2023/08/17 07:43:25;;;;;;;3.75;3.40;;;;;;;;;;10373306;28;20046;-62
2023/08/17 07:48:26;;;;;;;4.72;3.45;;;;;;;;;;10372985;28;20061;-62
2023/08/17 07:53:26;;;;;;;4.50;4.07;;;;;;;;;;10373426;28;20030;-63
2023/08/17 07:58:27;;;;;;;4.32;3.70;;;;;;;;;;10373282;28;20045;-63
2023/08/17 08:03:27;;;;;;;3.78;3.42;;;;;;;;;;10372559;28;20117;-63
2023/08/17 08:08:28;;;;;;;4.53;3.40;;;;;;;;;;10372265;28;20030;-64
2023/08/17 08:13:28;;;;;;;3.80;3.50;;;;;;;;;;10372146;28;20092;-61
2023/08/17 08:18:29;;;;;;;4.65;3.55;;;;;;;;;;10372097;28;20033;-61
2023/08/17 08:23:30;;;;;;;3.80;3.50;;;;;;;;;;10372307;28;20025;-63
2023/08/17 08:28:30;;;;;;;3.50;3.20;;;;;;;;;;10371651;28;20049;-62
2023/08/17 08:33:32;;;;;;;3.90;3.60;;;;;;;;;;10372122;28;20030;-55
2023/08/17 08:38:32;;;;;;;4.25;3.40;;;;;;;;;;10371087;28;20046;-60
2023/08/17 08:43:33;;;;;;;3.80;3.50;;;;;;;;;;10371124;28;20033;-64
2023/08/17 08:48:35;;;;;;;4.55;3.53;;;;;;;;;;10370782;28;20117;-60
2023/08/17 08:53:45;;;;;;;4.40;3.58;;;;;;;;;;10369499;28;20026;-61
2023/08/17 08:58:47;;;;;;;3.70;3.40;;;;;;;;;;10369669;28;20478;-64
2023/08/17 09:03:48;;;;;;;3.75;3.38;;;;;;;;;;10369267;28;20030;-63
2023/08/17 09:08:49;;;;;;;4.72;3.97;;;;;;;;;;10370165;28;20504;-63
2023/08/17 09:13:50;;;;;;;3.97;3.65;;;;;;;;;;10369982;28;20038;-61
2023/08/17 09:18:53;;;;;;;3.60;3.30;;;;;;;;;;10370316;28;20117;-64
2023/08/17 09:23:56;;;;;;;3.65;3.35;;;;;;;;;;10369923;28;20038;-61
2023/08/17 09:28:58;;;;;;;3.90;3.60;;;;;;;;;;10369635;28;20061;-50
2023/08/17 09:33:58;;;;;;;5.05;3.67;;;;;;;;;;10369657;28;20030;-63
2023/08/17 09:39:01;;;;;;;4.38;3.55;;;;;;;;;;10369766;28;20053;-61
2023/08/17 09:44:02;;;;;;;4.32;3.70;;;;;;;;;;10368806;28;20496;-64
2023/08/17 09:49:06;;;;;;;4.15;3.65;;;;;;;;;;10368790;28;20029;-63
2023/08/17 09:54:07;;;;;;;4.00;3.40;;;;;;;;;;10368989;28;20112;-62
2023/08/17 09:59:07;;;;;;;4.55;4.00;;;;;;;;;;10368552;28;20429;-58
2023/08/17 10:04:10;;;;;;;3.70;3.40;;;;;;;;;;10368561;28;20084;-59
2023/08/17 10:09:13;;;;;;;3.78;3.45;;;;;;;;;;10367408;28;20041;-55
2023/08/17 10:14:21;;;;;;;4.57;3.60;;;;;;;;;;10366883;28;20056;-63
2023/08/17 10:19:43;;;;;;;3.85;3.55;;;;;;;;;;10366998;28;20026;-64
2023/08/17 10:24:45;;;;;;;4.15;3.67;;;;;;;;;;10366648;28;20073;-61
2023/08/17 10:29:45;;;;;;;4.63;3.67;;;;;;;;;;10366590;28;20040;-50
2023/08/17 10:34:46;;;;;;;3.95;3.55;;;;;;;;;;10367655;28;20041;-60
2023/08/17 10:39:48;;;;;;;3.97;3.60;;;;;;;;;;10367459;28;20080;-64
2023/08/17 10:44:49;;;;;;;4.25;3.85;;;;;;;;;;10367893;28;20030;-63
2023/08/17 10:49:57;;;;;;;4.68;3.80;;;;;;;;;;10367440;28;20034;-64
2023/08/17 10:55:05;;;;;;;4.70;3.60;;;;;;;;;;10367173;28;20484;-60
2023/08/17 11:00:30;;;;;;;4.07;3.63;;;;;;;;;;10367364;28;20029;-61
2023/08/17 11:05:55;;;;;;;4.57;3.35;;;;;;;;;;10367423;28;20034;-63
2023/08/17 11:11:13;;;;;;;4.88;3.40;;;;;;;;;;10367749;28;20044;-64
2023/08/17 11:16:15;;;;;;;;;;;;;;;;;;10367621;28;20034;-64
2023/08/17 11:21:17;;;;;;;5.35;3.63;;;;;;;;;;10368190;28;19917;-64
2023/08/17 11:26:18;;;;;;;4.10;3.70;;;;;;;;;;10373787;28;20112;-60
2023/08/17 11:31:19;;;;;;;4.25;3.85;;;;;;;;;;10374114;28;20409;-50
2023/08/17 11:36:21;;;;;;;3.85;3.55;;;;;;;;;;10374214;28;20046;-63
2023/08/17 11:41:22;;;;;;;4.22;3.83;;;;;;;;;;10373825;28;20026;-64
2023/08/17 11:46:25;;;;;;;3.97;3.65;;;;;;;;;;10373403;28;20030;-64
2023/08/17 11:51:31;;;;;;;3.72;3.42;;;;;;;;;;10373637;28;20101;-64
2023/08/17 11:56:31;;;;;;;4.68;3.67;;;;;;;;;;10373605;28;20037;-64
2023/08/17 12:01:34;;;;;;;4.68;4.03;;;;;;;;;;10372923;28;20029;-64
2023/08/17 12:06:41;;;;;;;4.60;4.20;;;;;;;;;;10372531;28;20061;-64
2023/08/17 12:11:46;;;;;;;4.30;3.92;;;;;;;;;;10372599;28;20025;-58
2023/08/17 12:16:48;;;;;;;3.83;3.53;;;;;;;;;;10372881;28;20080;-64
2023/08/17 12:21:49;;;;;;;4.70;3.83;;;;;;;;;;10371412;28;20035;-61
2023/08/17 12:26:49;;;;;;;4.38;3.55;;;;;;;;;;10371900;28;20473;-61
2023/08/17 12:31:52;;;;;;;4.07;3.67;;;;;;;;;;10371737;28;20030;-55
2023/08/17 12:36:52;;;;;;;4.32;3.92;;;;;;;;;;10372074;28;20052;-57
2023/08/17 12:41:53;;;;;;;4.55;3.97;;;;;;;;;;10371278;28;20354;-61
2023/08/17 12:46:53;;;;;;;4.03;3.72;;;;;;;;;;10371705;28;20033;-63
2023/08/17 12:51:54;;;;;;;4.05;3.22;;;;;;;;;;10370970;28;20083;-62
2023/08/17 12:56:55;;;;;;;7.05;4.07;;;;;;;;;;10370845;28;20033;-62
2023/08/17 13:01:55;;;;;;;4.40;3.95;;;;;;;;;;10370526;28;20080;-61
2023/08/17 13:06:56;;;;;;;3.60;3.30;;;;;;;;;;10370373;28;20033;-61
2023/08/17 13:11:56;;;;;;;4.55;4.15;;;;;;;;;;10370677;28;20033;-60
2023/08/17 13:16:57;;;;;;;5.55;3.95;;;;;;;;;;10369984;28;20048;-63
2023/08/17 13:21:57;;;;;;;4.43;3.97;;;;;;;;;;10369800;28;20037;-59
2023/08/17 13:26:58;;;;;;;4.40;4.03;;;;;;;;;;10370215;28;20038;-59
2023/08/17 13:31:59;;;;;;;4.18;3.80;;;;;;;;;;10369879;28;20052;-63
2023/08/17 13:36:59;;;;;;;4.40;4.00;;;;;;;;;;10367759;28;20045;-61
2023/08/17 13:42:00;;;;;;;4.40;4.00;;;;;;;;;;10369877;28;20017;-62
2023/08/17 13:47:00;;;;;;;3.97;3.60;;;;;;;;;;10368424;28;20371;-62
2023/08/17 13:52:01;;;;;;;4.90;4.18;;;;;;;;;;10368759;28;20403;-62
2023/08/17 13:57:03;;;;;;;4.93;4.30;;;;;;;;;;10369129;28;20056;-63
2023/08/17 14:02:04;;;;;;;4.63;4.00;;;;;;;;;;10368473;28;20026;-63
2023/08/17 14:07:04;;;;;;;4.80;3.55;;;;;;;;;;10368289;28;20026;-61
2023/08/17 14:12:05;;;;;;;4.30;3.90;;;;;;;;;;10368249;28;20030;-61
2023/08/17 14:17:06;;;;;;;3.92;3.63;;;;;;;;;;10368495;28;20033;-64
2023/08/17 14:22:06;;;;;;;5.18;3.70;;;;;;;;;;10368391;28;20029;-62
2023/08/17 14:27:07;;;;;;;4.00;3.70;;;;;;;;;;10367910;28;20481;-63
2023/08/17 14:32:07;;;;;;;4.22;3.80;;;;;;;;;;10367770;28;20425;-60
2023/08/17 14:37:08;;;;;;;4.20;3.90;;;;;;;;;;10367674;28;20042;-63
2023/08/17 14:42:08;;;;;;;4.20;3.80;;;;;;;;;;10367474;28;20033;-62
2023/08/17 14:47:09;;;;;;;4.28;3.85;;;;;;;;;;10367494;28;20025;-57
2023/08/17 14:52:10;;;;;;;4.80;4.30;;;;;;;;;;10367508;28;20032;-64
2023/08/17 14:57:10;;;;;;;4.72;4.22;;;;;;;;;;10370715;28;20036;-61
2023/08/17 15:02:11;;;;;;;4.05;3.72;;;;;;;;;;10375186;28;20149;-64
2023/08/17 15:07:11;;;;;;;4.70;4.30;;;;;;;;;;10375043;28;20030;-60
2023/08/17 15:12:12;;;;;;;4.75;4.22;;;;;;;;;;10375327;28;20026;-61
2023/08/17 15:17:13;;;;;;;5.10;4.07;;;;;;;;;;10374667;28;20029;-63
2023/08/17 15:22:13;;;;;;;4.32;3.90;;;;;;;;;;10375081;28;20049;-57
2023/08/17 15:27:14;;;;;;;4.30;3.90;;;;;;;;;;10374312;28;20165;-64
2023/08/17 15:32:14;;;;;;;4.50;4.10;;;;;;;;;;10374084;28;20374;-60
2023/08/17 15:37:15;;;;;;;4.32;3.92;;;;;;;;;;10373586;28;20042;-63
2023/08/17 15:42:15;;;;;;;4.50;4.10;;;;;;;;;;10373623;28;20265;-62
2023/08/17 15:47:16;;;;;;;4.43;4.03;;;;;;;;;;10374041;28;20026;-64
2023/08/17 15:52:17;;;;;;;4.40;4.03;;;;;;;;;;10373970;28;20359;-63
2023/08/17 15:57:17;;;;;;;4.13;3.72;;;;;;;;;;10373251;28;20512;-61
2023/08/17 16:02:18;;;;;;;4.93;4.22;;;;;;;;;;10373435;28;20026;-64
2023/08/17 16:07:19;;;;;;;4.30;3.90;;;;;;;;;;10372342;28;20030;-62
2023/08/17 16:12:20;;;;;;;4.53;4.13;;;;;;;;;;10372461;28;20033;-63
2023/08/17 16:17:20;;;;;;;4.72;4.32;;;;;;;;;;10372444;28;20025;-60
2023/08/17 16:22:21;;;;;;;5.63;4.18;;;;;;;;;;10372690;28;20037;-64
2023/08/17 16:27:21;;;;;;;4.30;3.90;;;;;;;;;;10371929;28;20041;-64
2023/08/17 16:32:22;;;;;;;4.35;3.95;;;;;;;;;;10371774;28;20026;-63
2023/08/17 16:37:23;;;;;;;4.90;3.97;;;;;;;;;;10371608;28;20050;-64
2023/08/17 16:42:23;;;;;;;4.50;4.10;;;;;;;;;;10371421;28;20037;-62
2023/08/17 16:47:27;;;;;;;4.70;4.30;;;;;;;;;;10371898;28;20034;-63
2023/08/17 16:52:28;;;;;;;4.93;4.53;;;;;;;;;;10371051;28;20034;-64
2023/08/17 16:57:28;;;;;;;4.60;4.20;;;;;;;;;;10370608;28;20386;-62
2023/08/17 17:02:28;;;;;;;5.30;4.10;;;;;;;;;;10370969;28;20026;-57
2023/08/17 17:07:29;;;;;;;4.93;4.23;;;;;;;;;;10370494;28;20444;-58
2023/08/17 17:12:29;;;;;;;5.33;4.40;;;;;;;;;;10370404;28;20087;-61
2023/08/17 17:17:30;;;;;;;4.87;4.37;;;;;;;;;;10370340;28;20042;-61
2023/08/17 17:22:30;;;;;;;4.60;4.20;;;;;;;;;;10369107;28;20983;-60
2023/08/17 17:27:31;;;;;;;5.22;4.28;;;;;;;;;;10369601;28;20153;-61
2023/08/17 17:32:31;;;;;;;4.50;4.10;;;;;;;;;;10370575;28;20275;-62
2023/08/17 17:37:32;;;;;;;4.83;4.33;;;;;;;;;;10369306;28;20401;-62
2023/08/17 17:42:32;;;;;;;5.30;4.50;;;;;;;;;;10368855;28;20454;-62
2023/08/17 17:47:36;;;;;;;5.32;4.53;;;;;;;;;;10369300;28;20022;-62
2023/08/17 17:52:36;;;;;;;4.40;4.00;;;;;;;;;;10369366;28;20018;-62
2023/08/17 17:57:37;;;;;;;4.78;4.30;;;;;;;;;;10368933;28;20529;-62
2023/08/17 18:02:38;;;;;;;5.95;4.00;;;;;;;;;;10368956;28;20026;-59
2023/08/17 18:07:39;;;;;;;4.97;3.90;;;;;;;;;;10368912;28;20029;-55
2023/08/17 18:12:39;;;;;;;4.93;4.43;;;;;;;;;;10368122;28;20507;-60
2023/08/17 18:17:40;;;;;;;4.50;4.10;;;;;;;;;;10368390;28;20050;-62
2023/08/17 18:22:40;;;;;;;4.33;3.93;;;;;;;;;;10367406;28;20452;-61
2023/08/17 18:27:41;;;;;;;4.45;4.07;;;;;;;;;;10366692;28;20037;-63
2023/08/17 18:32:41;;;;;;;4.63;4.22;;;;;;;;;;10366467;28;20513;-61
2023/08/17 18:37:42;;;;;;;4.80;4.37;;;;;;;;;;10367530;28;20096;-63
2023/08/17 18:42:42;;;;;;;4.97;4.50;;;;;;;;;;10367376;28;20452;-61
2023/08/17 18:47:46;;;;;;;22.87;6.30;;;;;;;;;;10367487;28;20444;-63
2023/08/17 18:52:46;;;;;;;13.05;6.18;;;;;;;;;;10366952;28;20470;-62
2023/08/17 18:57:49;;;;;;;11.50;5.80;;;;;;;;;;10366999;28;20022;-64
2023/08/17 19:02:50;;;;;;;12.70;5.65;;;;;;;;;;10367648;28;20463;-63
2023/08/17 19:07:50;;;;;;;13.43;5.10;;;;;;;;;;10367585;28;20104;-63
2023/08/17 19:12:51;;;;;;;10.80;5.43;;;;;;;;;;10366804;28;20030;-64
2023/08/17 19:17:51;;;;;;;6.95;5.15;;;;;;;;;;10364917;28;20026;-63
2023/08/17 19:22:54;;;;;;;8.30;5.03;;;;;;;;;;10366111;28;20034;-64
2023/08/17 19:27:55;;;;;;;11.32;5.40;;;;;;;;;;10366891;28;20488;-63
2023/08/17 19:32:56;;;;;;;8.00;4.97;;;;;;;;;;10366095;28;20378;-63
2023/08/17 19:37:57;;;;;;;7.35;5.40;;;;;;;;;;10364728;28;20487;-63
2023/08/17 19:42:57;;;;;;;6.50;5.78;;;;;;;;;;10367499;28;20030;-63
2023/08/17 19:47:57;;;;;;;7.37;5.60;;;;;;;;;;10371939;28;20087;-63
2023/08/17 19:52:58;;;;;;;6.07;5.47;;;;;;;;;;10372430;28;20034;-63
2023/08/17 19:57:58;;;;;;;8.27;5.30;;;;;;;;;;10371894;28;20249;-61
2023/08/17 20:02:59;;;;;;;9.32;5.88;;;;;;;;;;10372145;28;21072;-63
2023/08/17 20:07:59;;;;;;;8.60;5.30;;;;;;;;;;10372248;28;20462;-66
2023/08/17 20:13:00;;;;;;;5.93;5.23;;;;;;;;;;10370817;28;20238;-64
2023/08/17 20:18:00;;;;;;;8.07;5.40;;;;;;;;;;10371767;28;20029;-66
2023/08/17 20:23:00;;;;;;;8.30;5.77;;;;;;;;;;10371756;28;20038;-64
2023/08/17 20:28:01;;;;;;;7.30;5.10;;;;;;;;;;10371932;28;20121;-65
2023/08/17 20:33:02;;;;;;;10.30;5.40;;;;;;;;;;10371746;28;20036;-65
2023/08/17 20:38:03;;;;;;;8.07;4.90;;;;;;;;;;10371800;28;20116;-65
2023/08/17 20:43:05;;;;;;;10.10;4.90;;;;;;;;;;10371255;28;20072;-66
2023/08/17 20:48:05;;;;;;;7.13;5.35;;;;;;;;;;10371450;28;20028;-65
2023/08/17 20:53:06;;;;;;;7.40;5.40;;;;;;;;;;10370944;28;20354;-66
2023/08/17 20:58:07;;;;;;;6.03;4.75;;;;;;;;;;10370042;28;20458;-64
2023/08/17 21:03:08;;;;;;;6.50;4.70;;;;;;;;;;10369428;28;20121;-65
2023/08/17 21:08:09;;;;;;;5.68;5.00;;;;;;;;;;10370450;28;20037;-56
2023/08/17 21:13:09;;;;;;;5.13;4.63;;;;;;;;;;10370589;28;20030;-56
2023/08/17 21:18:10;;;;;;;6.00;4.57;;;;;;;;;;10370060;28;20028;-55
2023/08/17 21:23:12;;;;;;;5.13;4.60;;;;;;;;;;10369728;28;20543;-54
2023/08/17 21:28:12;;;;;;;4.45;4.03;;;;;;;;;;10369579;28;20045;-54
2023/08/17 21:33:12;;;;;;;5.10;4.23;;;;;;;;;;10369277;28;20496;-55
2023/08/17 21:38:13;;;;;;;4.23;3.83;;;;;;;;;;10368923;28;20539;-53
2023/08/17 21:43:13;;;;;;;4.20;3.80;;;;;;;;;;10367339;28;20465;-57
2023/08/17 21:48:14;;;;;;;10.23;3.63;;;;;;;;;;10368694;28;20459;-47
2023/08/17 21:53:14;;;;;;;4.33;3.83;;;;;;;;;;10369252;28;20446;-48
2023/08/17 21:58:15;;;;;;;5.60;3.72;;;;;;;;;;10368525;28;20550;-46
2023/08/17 22:03:16;;;;;;;7.20;4.10;;;;;;;;;;10368417;28;20032;-49
2023/08/17 22:08:16;;;;;;;4.00;3.60;;;;;;;;;;10368701;28;20774;-48
2023/08/17 22:13:17;;;;;;;6.50;3.67;;;;;;;;;;10361393;28;20029;-52
2023/08/17 22:18:17;;;;;;;5.95;3.83;;;;;;;;;;10368033;28;20030;-53
2023/08/17 22:23:17;;;;;;;7.87;4.10;;;;;;;;;;10368526;28;20345;-50
2023/08/17 22:28:18;;;;;;;4.07;3.67;;;;;;;;;;10367577;28;20451;-56
2023/08/17 22:33:18;;;;;;;6.55;3.78;;;;;;;;;;10367721;28;20029;-51
2023/08/17 22:38:20;;;;;;;6.90;3.63;;;;;;;;;;10366914;28;20085;-49
2023/08/17 22:43:20;;;;;;;6.28;3.90;;;;;;;;;;10367284;28;20448;-50
2023/08/17 22:48:21;;;;;;;4.30;3.57;;;;;;;;;;10366937;28;20032;-50
2023/08/17 22:53:21;;;;;;;6.43;3.40;;;;;;;;;;10367376;28;20467;-49
2023/08/17 22:58:22;;;;;;;6.38;4.18;;;;;;;;;;10367292;28;20385;-49
2023/08/17 23:03:22;;;;;;;4.57;3.53;;;;;;;;;;10366979;28;20030;-50
2023/08/17 23:08:23;;;;;;;3.73;3.10;;;;;;;;;;10367594;28;20440;-49
2023/08/17 23:13:24;;;;;;;5.37;3.10;;;;;;;;;;10366933;28;20022;-49
2023/08/17 23:18:24;;;;;;;4.13;3.03;;;;;;;;;;10369525;28;20017;-51
2023/08/17 23:23:25;;;;;;;8.97;3.80;;;;;;;;;;10374983;28;20025;-51
2023/08/17 23:28:25;;;;;;;4.63;2.93;;;;;;;;;;10374572;28;20440;-54
2023/08/17 23:33:26;;;;;;;3.00;2.80;;;;;;;;;;10374336;28;20503;-55
2023/08/17 23:38:26;;;;;;;3.55;3.20;;;;;;;;;;10373749;28;20042;-51
2023/08/17 23:43:27;;;;;;;3.95;2.90;;;;;;;;;;10373739;28;20022;-53
2023/08/17 23:48:27;;;;;;;6.63;3.53;;;;;;;;;;10373644;28;20030;-50
2023/08/17 23:53:28;;;;;;;4.97;3.30;;;;;;;;;;10373902;28;20477;-51
2023/08/17 23:58:28;;;;;;;3.30;3.00;;;;;;;;;;10373246;28;20490;-48
